createdAt,value
2023-05-22T00:01:22.775Z,8.00
2023-05-22T00:04:30.157Z,7.75
2023-05-22T00:07:33.764Z,8.00
2023-05-22T00:10:38.588Z,9.75
2023-05-22T00:13:42.034Z,7.75
2023-05-22T00:16:46.397Z,8.40
2023-05-22T00:19:49.748Z,9.00
2023-05-22T00:22:53.778Z,8.00
2023-05-22T00:25:58.693Z,7.20
2023-05-22T00:29:02.122Z,7.00
2023-05-22T00:32:06.588Z,7.00
2023-05-22T00:35:11.213Z,9.00
2023-05-22T00:38:30.588Z,7.00
2023-05-22T00:41:35.456Z,7.00
2023-05-22T00:44:38.984Z,7.75
2023-05-22T00:47:42.913Z,8.60
2023-05-22T00:50:46.599Z,9.00
2023-05-22T00:53:51.753Z,8.60
2023-05-22T00:56:56.675Z,6.40
2023-05-22T01:00:00.892Z,9.00
2023-05-22T01:03:08.122Z,8.00
2023-05-22T01:06:11.976Z,10.20
2023-05-22T01:09:15.635Z,8.00
2023-05-22T01:12:26.795Z,7.00
2023-05-22T01:15:36.651Z,9.00
2023-05-22T01:18:47.829Z,7.80
2023-05-22T01:22:07.553Z,9.00
2023-05-22T01:25:45.403Z,7.00
2023-05-22T01:29:32.267Z,8.00
2023-05-22T01:32:39.444Z,8.00
2023-05-22T01:35:44.719Z,5.60
2023-05-22T01:38:48.568Z,9.00
2023-05-22T01:41:52.547Z,7.50
2023-05-22T01:44:55.810Z,6.75
2023-05-22T01:48:00.561Z,7.80
2023-05-22T01:51:09.082Z,10.60
2023-05-22T01:54:18.325Z,9.75
2023-05-22T01:57:28.723Z,9.60
2023-05-22T02:00:33.605Z,9.00
2023-05-22T02:03:41.070Z,9.00
2023-05-22T02:06:45.986Z,8.00
2023-05-22T02:09:52.207Z,8.00
2023-05-22T02:12:56.220Z,10.00
2023-05-22T02:16:00.143Z,8.75
2023-05-22T02:19:07.097Z,10.00
2023-05-22T02:22:13.888Z,10.00
2023-05-22T02:25:17.874Z,11.40
2023-05-22T02:28:21.975Z,10.75
2023-05-22T02:31:26.479Z,10.50
2023-05-22T02:34:32.075Z,11.00
2023-05-22T02:37:36.216Z,8.00
2023-05-22T02:40:39.711Z,9.40
2023-05-22T02:43:43.675Z,12.00
2023-05-22T02:46:47.560Z,10.40
2023-05-22T02:49:52.609Z,13.00
2023-05-22T02:52:56.044Z,9.40
2023-05-22T02:55:59.918Z,11.60
2023-05-22T02:59:03.533Z,9.00
2023-05-22T03:02:07.328Z,9.20
2023-05-22T03:05:12.134Z,9.40
2023-05-22T03:08:16.864Z,9.80
2023-05-22T03:11:20.143Z,12.00
2023-05-22T03:14:23.643Z,10.25
2023-05-22T03:17:26.957Z,10.00
2023-05-22T03:20:32.858Z,11.00
2023-05-22T03:23:36.297Z,9.00
2023-05-22T03:26:39.791Z,9.00
2023-05-22T03:29:46.142Z,8.00
2023-05-22T03:32:49.720Z,8.00
2023-05-22T03:35:54.597Z,8.60
2023-05-22T03:38:57.986Z,10.00
2023-05-22T03:42:01.327Z,10.00
2023-05-22T03:45:06.777Z,11.80
2023-05-22T03:48:10.794Z,10.00
2023-05-22T03:51:18.099Z,9.75
2023-05-22T03:54:23.343Z,9.60
2023-05-22T03:57:26.646Z,7.00
2023-05-22T04:00:29.986Z,10.00
2023-05-22T04:03:33.289Z,7.00
2023-05-22T04:06:43.381Z,7.80
2023-05-22T04:09:49.370Z,7.00
2023-05-22T04:12:52.557Z,7.20
2023-05-22T04:15:56.944Z,8.20
2023-05-22T04:19:01.663Z,8.00
2023-05-22T04:22:06.872Z,8.00
2023-05-22T04:25:10.585Z,9.40
2023-05-22T04:28:13.838Z,8.60
2023-05-22T04:31:17.203Z,7.00
2023-05-22T04:34:20.500Z,8.00
2023-05-22T04:37:26.571Z,6.00
2023-05-22T04:40:33.903Z,7.40
2023-05-22T04:43:39.000Z,7.00
2023-05-22T04:46:44.064Z,6.80
2023-05-22T04:49:47.508Z,8.60
2023-05-22T04:52:53.561Z,6.25
2023-05-22T04:55:57.346Z,9.00
2023-05-22T04:59:01.386Z,8.00
2023-05-22T05:02:04.805Z,7.00
2023-05-22T05:05:08.662Z,7.00
2023-05-22T05:08:13.421Z,8.00
2023-05-22T05:11:16.740Z,8.00
2023-05-22T05:14:20.530Z,9.00
2023-05-22T05:17:24.045Z,8.20
2023-05-22T05:20:27.575Z,6.00
2023-05-22T05:23:32.618Z,7.00
2023-05-22T05:26:35.906Z,7.60
2023-05-22T05:29:39.479Z,7.00
2023-05-22T05:32:50.361Z,7.00
2023-05-22T05:36:07.528Z,5.60
2023-05-22T05:39:13.508Z,8.00
2023-05-22T05:42:18.134Z,5.80
2023-05-22T05:45:22.774Z,7.00
2023-05-22T05:48:26.422Z,6.00
2023-05-22T05:51:31.197Z,6.20
2023-05-22T05:54:36.269Z,7.00
2023-05-22T05:57:46.918Z,6.40
2023-05-22T06:00:57.433Z,6.00
2023-05-22T06:04:03.208Z,5.67
2023-05-22T06:07:08.505Z,5.00
2023-05-22T06:10:22.427Z,5.00
2023-05-22T06:13:32.726Z,5.60
2023-05-22T06:16:37.205Z,7.50
2023-05-22T06:19:41.133Z,6.60
2023-05-22T06:22:44.603Z,6.00
2023-05-22T06:25:49.522Z,8.00
2023-05-22T06:28:54.377Z,8.00
2023-05-22T06:31:58.891Z,8.00
2023-05-22T06:35:03.053Z,8.00
2023-05-22T06:38:06.920Z,7.00
2023-05-22T06:41:11.891Z,6.00
2023-05-22T06:44:15.495Z,5.60
2023-05-22T06:47:18.738Z,6.50
2023-05-22T06:50:23.866Z,7.20
2023-05-22T06:53:27.411Z,6.00
2023-05-22T06:56:32.630Z,6.00
2023-05-22T06:59:42.398Z,7.00
2023-05-22T07:03:12.135Z,5.00
2023-05-22T07:06:23.192Z,6.00
2023-05-22T07:09:26.580Z,5.00
2023-05-22T07:12:31.613Z,6.00
2023-05-22T07:15:34.977Z,5.60
2023-05-22T07:18:40.557Z,5.00
2023-05-22T07:21:43.818Z,6.00
2023-05-22T07:24:49.226Z,5.00
2023-05-22T07:27:56.010Z,5.20
2023-05-22T07:31:00.862Z,5.00
2023-05-22T07:34:04.207Z,5.60
2023-05-22T07:37:09.448Z,5.00
2023-05-22T07:40:13.835Z,5.00
2023-05-22T07:43:18.624Z,6.00
2023-05-22T07:46:22.078Z,4.00
2023-05-22T07:49:45.213Z,5.00
2023-05-22T07:52:48.527Z,7.00
2023-05-22T07:55:53.079Z,3.80
2023-05-22T07:58:57.971Z,6.00
2023-05-22T08:02:02.913Z,5.40
2023-05-22T08:05:07.156Z,5.00
2023-05-22T08:08:12.672Z,5.00
2023-05-22T08:11:15.917Z,4.60
2023-05-22T08:14:22.701Z,5.00
2023-05-22T08:17:26.236Z,5.00
2023-05-22T08:20:29.638Z,3.00
2023-05-22T08:23:32.945Z,4.00
2023-05-22T08:26:36.309Z,4.00
2023-05-22T08:29:40.994Z,5.00
2023-05-22T08:32:44.368Z,5.00
2023-05-22T08:35:47.764Z,6.00
2023-05-22T08:38:51.102Z,6.00
2023-05-22T08:41:54.372Z,6.00
2023-05-22T08:45:01.194Z,5.00
2023-05-22T08:48:06.944Z,4.00
2023-05-22T08:51:14.517Z,3.40
2023-05-22T08:54:22.699Z,4.50
2023-05-22T08:57:27.171Z,4.00
2023-05-22T09:00:32.625Z,4.00
2023-05-22T09:03:37.394Z,5.00
2023-05-22T09:06:40.741Z,5.00
2023-05-22T09:09:44.576Z,6.00
2023-05-22T09:13:05.073Z,5.00
2023-05-22T09:16:11.998Z,5.00
2023-05-22T09:19:16.109Z,3.00
2023-05-22T09:22:20.402Z,4.60
2023-05-22T09:25:26.588Z,4.60
2023-05-22T09:28:35.003Z,4.00
2023-05-22T09:31:46.626Z,5.00
2023-05-22T09:34:52.900Z,4.00
2023-05-22T09:37:57.384Z,6.20
2023-05-22T09:41:00.687Z,5.00
2023-05-22T09:44:12.823Z,4.20
2023-05-22T09:47:17.840Z,5.00
2023-05-22T09:50:21.375Z,3.00
2023-05-22T09:53:29.187Z,4.50
2023-05-22T09:56:39.176Z,3.75
2023-05-22T09:59:45.436Z,4.20
2023-05-22T10:03:12.069Z,5.00
2023-05-22T10:06:18.940Z,5.00
2023-05-22T10:09:30.915Z,4.40
2023-05-22T10:12:39.415Z,4.60
2023-05-22T10:15:42.896Z,5.00
2023-05-22T10:18:50.783Z,6.00
2023-05-22T10:21:57.240Z,4.00
2023-05-22T10:25:02.518Z,5.80
2023-05-22T10:28:06.607Z,4.20
2023-05-22T10:31:20.453Z,3.00
2023-05-22T10:34:55.466Z,5.80
2023-05-22T10:38:16.389Z,6.00
2023-05-22T10:41:19.838Z,5.00
2023-05-22T10:44:23.696Z,3.00
2023-05-22T10:47:27.706Z,5.00
2023-05-22T10:50:32.897Z,5.00
2023-05-22T10:53:37.437Z,5.00
2023-05-22T10:56:42.370Z,4.00
2023-05-22T10:59:48.231Z,4.00
2023-05-22T11:02:51.580Z,5.60
2023-05-22T11:06:01.985Z,5.00
2023-05-22T11:09:23.000Z,5.00
2023-05-22T11:12:28.698Z,5.00
2023-05-22T11:15:33.394Z,4.00
2023-05-22T11:18:36.774Z,4.00
2023-05-22T11:21:46.203Z,5.50
2023-05-22T11:24:49.985Z,4.00
2023-05-22T11:27:55.857Z,6.00
2023-05-22T11:31:01.065Z,5.75
2023-05-22T11:34:05.229Z,5.00
2023-05-22T11:37:10.704Z,4.80
2023-05-22T11:40:16.968Z,4.20
2023-05-22T11:43:29.966Z,5.00
2023-05-22T11:46:33.381Z,3.00
2023-05-22T11:49:36.795Z,6.67
2023-05-22T11:52:44.197Z,4.80
2023-05-22T11:55:49.565Z,5.00
2023-05-22T11:58:53.240Z,3.80
2023-05-22T12:01:56.543Z,6.00
2023-05-22T12:05:00.133Z,5.00
2023-05-22T12:08:04.983Z,5.00
2023-05-22T12:11:08.653Z,3.50
2023-05-22T12:14:12.843Z,5.00
2023-05-22T12:17:18.067Z,4.50
2023-05-22T12:20:21.282Z,4.00
2023-05-22T12:23:27.201Z,5.00
2023-05-22T12:26:30.594Z,4.00
2023-05-22T12:29:34.884Z,4.00
2023-05-22T12:32:38.257Z,5.00
2023-05-22T12:35:41.538Z,6.00
2023-05-22T12:38:46.457Z,5.20
2023-05-22T12:41:50.247Z,4.00
2023-05-22T12:44:55.146Z,4.00
2023-05-22T12:47:58.434Z,6.80
2023-05-22T12:51:02.075Z,6.00
2023-05-22T12:54:06.898Z,8.00
2023-05-22T12:57:10.731Z,7.00
2023-05-22T13:00:15.112Z,5.00
2023-05-22T13:03:18.712Z,5.60
2023-05-22T13:06:22.031Z,6.00
2023-05-22T13:09:26.703Z,4.00
2023-05-22T13:12:31.602Z,5.40
2023-05-22T13:15:36.254Z,8.00
2023-05-22T13:18:39.597Z,5.20
2023-05-22T13:21:43.723Z,7.00
2023-05-22T13:24:48.689Z,6.00
2023-05-22T13:27:51.914Z,6.00
2023-05-22T13:30:55.195Z,4.00
2023-05-22T13:33:59.168Z,6.00
2023-05-22T13:37:03.700Z,5.20
2023-05-22T13:40:10.428Z,5.00
2023-05-22T13:43:13.866Z,6.00
2023-05-22T13:46:18.145Z,5.40
2023-05-22T13:49:22.199Z,6.00
2023-05-22T13:52:25.476Z,5.80
2023-05-22T13:55:30.154Z,8.00
2023-05-22T13:58:33.415Z,4.00
2023-05-22T14:01:36.727Z,6.20
2023-05-22T14:04:40.523Z,6.00
2023-05-22T14:07:43.728Z,5.00
2023-05-22T14:10:48.335Z,8.00
2023-05-22T14:13:52.362Z,9.00
2023-05-22T14:16:55.682Z,7.20
2023-05-22T14:19:59.967Z,7.00
2023-05-22T14:23:03.345Z,8.00
2023-05-22T14:26:08.261Z,7.80
2023-05-22T14:29:11.760Z,7.25
2023-05-22T14:32:15.052Z,7.20
2023-05-22T14:35:19.064Z,9.00
2023-05-22T14:38:22.630Z,7.00
2023-05-22T14:41:27.426Z,8.00
2023-05-22T14:44:30.784Z,10.00
2023-05-22T14:47:34.038Z,7.00
2023-05-22T14:50:37.569Z,6.00
2023-05-22T14:53:40.882Z,5.00
2023-05-22T14:56:45.808Z,8.00
2023-05-22T14:59:49.076Z,6.40
2023-05-22T15:02:52.527Z,8.40
2023-05-22T15:05:55.843Z,8.00
2023-05-22T15:08:59.149Z,7.67
2023-05-22T15:12:03.836Z,7.25
2023-05-22T15:15:08.121Z,8.00
2023-05-22T15:18:12.350Z,9.00
2023-05-22T15:21:15.791Z,8.00
2023-05-22T15:24:19.027Z,20.40
2023-05-22T15:27:24.010Z,10.60
2023-05-22T15:30:27.422Z,7.20
2023-05-22T15:33:30.945Z,9.50
2023-05-22T15:36:36.608Z,5.00
2023-05-22T15:39:40.030Z,7.00
2023-05-22T15:42:44.669Z,6.20
2023-05-22T15:45:49.586Z,6.00
2023-05-22T15:48:52.804Z,8.60
2023-05-22T15:51:56.087Z,5.00
2023-05-22T15:54:59.520Z,8.00
2023-05-22T15:58:06.279Z,6.00
2023-05-22T16:01:09.621Z,7.50
2023-05-22T16:04:13.014Z,8.00
2023-05-22T16:07:18.871Z,9.00
2023-05-22T16:10:22.778Z,8.80
2023-05-22T16:13:27.624Z,8.00
2023-05-22T16:16:30.998Z,8.00
2023-05-22T16:19:34.479Z,7.50
2023-05-22T16:22:48.164Z,9.00
2023-05-22T16:25:52.121Z,9.00
2023-05-22T16:28:56.777Z,8.00
2023-05-22T16:32:00.222Z,9.20
2023-05-22T16:35:03.868Z,9.50
2023-05-22T16:38:07.189Z,8.50
2023-05-22T16:41:10.502Z,7.00
2023-05-22T16:44:15.189Z,7.00
2023-05-22T16:47:19.131Z,8.60
2023-05-22T16:50:22.811Z,8.75
2023-05-22T16:53:26.117Z,9.00
2023-05-22T16:56:29.339Z,9.00
2023-05-22T16:59:34.017Z,10.00
2023-05-22T17:02:37.728Z,11.75
2023-05-22T17:05:41.580Z,9.00
2023-05-22T17:08:45.094Z,8.75
2023-05-22T17:11:48.368Z,8.20
2023-05-22T17:14:54.158Z,10.00
2023-05-22T17:17:57.437Z,9.00
2023-05-22T17:21:01.052Z,8.00
2023-05-22T17:24:04.716Z,9.00
2023-05-22T17:27:07.986Z,8.00
2023-05-22T17:30:13.247Z,9.20
2023-05-22T17:33:16.660Z,9.75
2023-05-22T17:36:20.056Z,10.40
2023-05-22T17:39:23.438Z,9.00
2023-05-22T17:42:27.389Z,15.20
2023-05-22T17:45:32.305Z,10.60
2023-05-22T17:48:35.807Z,12.40
2023-05-22T17:51:39.104Z,10.00
2023-05-22T17:54:42.359Z,13.00
2023-05-22T17:57:46.250Z,15.00
2023-05-22T18:00:51.084Z,17.00
2023-05-22T18:03:54.458Z,18.40
2023-05-22T18:06:57.776Z,18.50
2023-05-22T18:10:01.073Z,21.00
2023-05-22T18:13:04.551Z,19.60
2023-05-22T18:16:09.913Z,20.00
2023-05-22T18:19:15.531Z,19.00
2023-05-22T18:22:22.553Z,18.25
2023-05-22T18:25:51.911Z,16.60
2023-05-22T18:28:55.293Z,15.80
2023-05-22T18:32:00.109Z,16.25
2023-05-22T18:35:05.108Z,16.00
2023-05-22T18:38:08.409Z,14.75
2023-05-22T18:41:11.776Z,16.00
2023-05-22T18:44:15.318Z,13.00
2023-05-22T18:47:20.386Z,15.00
2023-05-22T18:50:23.854Z,14.00
2023-05-22T18:53:27.457Z,14.40
2023-05-22T18:56:31.013Z,14.00
2023-05-22T18:59:34.306Z,11.00
2023-05-22T19:02:39.027Z,13.20
2023-05-22T19:05:43.097Z,14.00
2023-05-22T19:08:46.328Z,13.80
2023-05-22T19:11:49.706Z,15.60
2023-05-22T19:14:53.076Z,17.40
2023-05-22T19:17:57.871Z,15.00
2023-05-22T19:21:01.259Z,16.60
2023-05-22T19:24:04.700Z,18.00
2023-05-22T19:27:07.995Z,17.40
2023-05-22T19:30:15.208Z,16.25
2023-05-22T19:33:23.516Z,17.40
2023-05-22T19:36:27.160Z,17.00
2023-05-22T19:39:30.517Z,18.00
2023-05-22T19:42:33.834Z,19.00
2023-05-22T19:45:37.130Z,19.00
2023-05-22T19:48:41.735Z,19.25
2023-05-22T19:51:45.999Z,17.00
2023-05-22T19:54:49.540Z,17.00
2023-05-22T19:57:52.789Z,18.00
2023-05-22T20:00:56.047Z,19.60
2023-05-22T20:04:01.206Z,19.00
2023-05-22T20:07:05.320Z,20.00
2023-05-22T20:10:11.852Z,20.00
2023-05-22T20:13:15.340Z,19.40
2023-05-22T20:16:18.962Z,19.40
2023-05-22T20:19:24.318Z,19.40
2023-05-22T20:22:28.573Z,21.00
2023-05-22T20:25:31.908Z,19.00
2023-05-22T20:28:35.193Z,20.00
2023-05-22T20:39:02.935Z,17.00
2023-05-22T20:42:06.539Z,16.00
2023-05-22T20:45:14.428Z,16.00
2023-05-22T20:48:18.775Z,16.80
2023-05-22T20:51:22.308Z,13.80
2023-05-22T20:54:26.984Z,17.00
2023-05-22T20:57:30.239Z,16.20
2023-05-22T21:00:35.053Z,13.75
2023-05-22T21:03:38.976Z,14.00
2023-05-22T21:06:42.356Z,13.00
2023-05-22T21:09:47.120Z,15.20
2023-05-22T21:12:50.399Z,11.00
2023-05-22T21:15:53.609Z,16.00
2023-05-22T21:18:56.860Z,15.00
2023-05-22T21:22:00.561Z,16.40
2023-05-22T21:25:05.794Z,13.00
2023-05-22T21:28:09.081Z,15.60
2023-05-22T21:31:12.362Z,15.00
2023-05-22T21:34:15.974Z,12.40
2023-05-22T21:37:19.165Z,12.00
2023-05-22T21:40:23.938Z,13.00
2023-05-22T21:43:27.231Z,14.00
2023-05-22T21:46:30.948Z,15.00
2023-05-22T21:49:34.315Z,14.25
2023-05-22T21:52:37.574Z,12.00
2023-05-22T21:55:42.194Z,15.00
2023-05-22T21:58:45.410Z,15.00
2023-05-22T22:01:48.721Z,14.00
2023-05-22T22:04:52.002Z,14.00
2023-05-22T22:07:55.242Z,13.50
2023-05-22T22:10:59.929Z,14.33
2023-05-22T22:14:03.224Z,14.00
2023-05-22T22:17:07.838Z,16.40
2023-05-22T22:20:12.278Z,13.60
2023-05-22T22:23:15.542Z,15.25
2023-05-22T22:26:20.160Z,17.00
2023-05-22T22:29:23.764Z,18.00
2023-05-22T22:32:27.017Z,15.80
2023-05-22T22:35:30.269Z,15.50
2023-05-22T22:38:35.144Z,15.00
2023-05-22T22:41:39.948Z,18.60
2023-05-22T22:44:43.207Z,16.00
2023-05-22T22:47:46.876Z,15.80
2023-05-22T22:50:50.265Z,16.60
2023-05-22T22:53:53.540Z,19.40
2023-05-22T22:56:58.287Z,20.00
2023-05-22T23:00:01.608Z,16.60
2023-05-22T23:03:06.070Z,20.00
2023-05-22T23:06:09.608Z,18.00
2023-05-22T23:09:12.928Z,15.00
2023-05-22T23:12:17.577Z,17.00
2023-05-22T23:15:20.786Z,15.60
2023-05-22T23:18:24.018Z,15.00
2023-05-22T23:21:27.349Z,18.40
2023-05-22T23:24:30.958Z,17.40
2023-05-22T23:27:36.494Z,15.00
2023-05-22T23:30:39.734Z,16.00
2023-05-22T23:33:42.977Z,16.00
2023-05-22T23:36:46.317Z,16.00
2023-05-22T23:39:49.697Z,16.50
2023-05-22T23:42:54.682Z,16.00
2023-05-22T23:45:58.045Z,14.60
2023-05-22T23:49:01.339Z,14.00
2023-05-22T23:52:04.791Z,17.00
2023-05-22T23:55:09.568Z,14.40
2023-05-22T23:58:15.965Z,15.75
